Date,TemperatureHighF,TemperatureAvgF,TemperatureLowF,DewpointHighF,DewpointAvgF,DewpointLowF,HumidityHigh,HumidityAvg,HumidityLow,PressureMaxIn,PressureMinIn,WindSpeedMaxMPH,WindSpeedAvgMPH,GustSpeedMaxMPH,PrecipitationSumIn
2013-2-1,32,28,24,16,13,7,70,54,36,30.25,29.80,12,2,12,0.00
2013-2-2,29,24,19,21,11,6,90,59,37,30.32,30.08,12,2,12,0.00
2013-2-3,31,26,21,22,20,17,94,79,62,30.08,29.81,4,0,4,0.01
2013-2-4,32,27,22,22,12,9,81,54,40,29.99,29.82,10,2,10,0.01
2013-2-5,30,28,26,28,24,14,93,83,56,30.00,29.91,8,1,8,0.00
2013-2-6,39,33,27,28,21,4,97,66,34,30.37,29.94,9,1,9,0.01
2013-2-7,32,28,23,24,12,4,75,51,35,30.54,30.35,7,1,7,0.00
2013-2-8,34,32,26,32,29,25,98,91,75,30.35,29.66,19,2,19,0.06
2013-2-9,32,27,20,27,18,8,98,72,44,30.36,29.77,15,2,15,0.14
2013-2-10,36,25,14,24,14,8,82,64,41,30.51,30.34,4,0,4,0.33
2013-2-11,41,36,29,40,34,23,100,94,75,30.35,29.68,2,0,2,0.54
2013-2-12,45,40,34,39,29,26,100,64,49,29.99,29.73,9,2,9,0.05
2013-2-13,44,36,26,32,26,23,96,70,48,29.97,29.70,6,0,6,0.00
2013-2-14,46,38,30,33,30,25,97,76,44,30.01,29.73,6,0,6,0.02
2013-2-15,55,43,34,39,34,30,89,73,45,30.03,29.92,10,1,10,0.00
2013-2-16,40,35,30,35,27,16,95,74,55,29.99,29.75,9,2,9,0.05
2013-2-17,31,26,17,17,6,1,56,44,31,30.03,29.68,16,3,16,0.00
2013-2-18,36,26,17,15,7,2,58,45,30,30.26,30.03,11,2,11,0.00
2013-2-19,48,38,28,43,29,15,97,71,48,30.22,29.69,10,1,10,0.20
2013-2-20,38,30,25,26,15,10,64,53,43,30.00,29.73,13,2,13,0.00
2013-2-21,34,28,24,16,14,11,68,55,45,30.31,29.99,17,2,17,0.00
2013-2-22,37,32,24,31,23,15,80,70,56,30.43,30.28,8,1,8,0.00
2013-2-23,41,37,34,40,36,31,98,95,80,30.30,29.83,17,1,17,0.11
2013-2-24,47,38,33,39,32,23,99,80,57,29.99,29.76,10,1,10,0.03
2013-2-25,44,38,28,30,27,23,86,66,50,30.25,29.99,9,1,9,0.00
2013-2-26,43,37,30,35,32,27,94,80,70,30.31,29.92,17,2,17,0.12
2013-2-27,46,42,36,45,40,34,98,92,81,29.92,29.51,27,3,27,0.74
2013-2-28,49,43,39,40,35,31,94,75,55,29.64,29.56,7,1,7,0.00